Escanaba, MI

10:58 AM EST on December 10, 2016 (GMT -0500)
Hurley Marine Lake Side Weather | | Change Station

Elev 607 ft 45.73 °N, 87.06 °W | Updated 2 seconds ago

Clear
Clear
14.7 °F
Feels Like 1 °F
N
12.0
Wind Variable Wind from WNW
Gusts 23.0 mph

Today
High -- | Low -- °F
--% Chance of Precip.
Yesterday
High -- | Low -- °F
Precip. -- in
Pressure 30.48 in
Visibility 10.0 miles
Clouds Clear
Windchill 1 °F
Dew Point 5 °F
Humidity 65%
Rainfall 0.00 in
Snow Depth Not available.
8:18 AM 5:03 PM
Waxing Gibbous, 84% visible
METAR KESC 101556Z AUTO 28013G18KT 10SM CLR M09/M16 A3039 RMK AO2 SLP320 T10941156 FZRANO
Pressure 30.48 in
Visibility 10.0 miles
Clouds Clear
Windchill 1 °F
Dew Point 5 °F
Humidity 65%
Rainfall 0.00 in
Snow Depth Not available.
8:18 AM 5:03 PM
Waxing Gibbous, 84% visible
METAR KESC 101556Z AUTO 28013G18KT 10SM CLR M09/M16 A3039 RMK AO2 SLP320 T10941156 FZRANO

10-Day Weather Forecast

Almanac

Astronomy

Dec. 10, 2016 Rise Set
Actual Time
Civil Twilight
Nautical Twilight
Astronomical Twilight
Moon
Length of Visible Light
Length of Day
Tomorrow will be .
, % of the Moon is Illuminated

Today's Extremes

State Highs State Lows

Community

WunderPhotos

Upload Photos

1,956,569 photos uploaded!

WunderBlog® & News

Nearby

Air Quality

  Air Quality AQ Index Pollutant
Not available.

Snow Depth

Station Depth Elevation

Earthquake Activity

City Distance Mag. Time & Date
Minimum magnitude displayed is 2.5.

Coastal Water Temperatures

Place Temperature

Stations

Nearby Weather Stations

Station Location Temp. Windchill Dew Point Humidity Wind Precip. Elev Updated Type
                   

Watches & Warnings

There are currently no watches in effect.